createdAt,value
2022-10-05T00:00:22.623Z,9.75
2022-10-05T00:02:50.541Z,11.30
2022-10-05T00:05:25.702Z,10.45
2022-10-05T00:07:54.396Z,10.05
2022-10-05T00:10:21.458Z,11.20
2022-10-05T00:12:48.503Z,12.93
2022-10-05T00:15:17.841Z,11.82
2022-10-05T00:17:44.240Z,11.20
2022-10-05T00:20:25.940Z,10.63
2022-10-05T00:23:00.775Z,10.30
2022-10-05T00:25:27.159Z,11.60
2022-10-05T00:27:59.912Z,9.45
2022-10-05T00:30:33.822Z,10.57
2022-10-05T00:33:00.264Z,11.73
2022-10-05T00:35:29.167Z,13.85
2022-10-05T00:37:55.903Z,11.30
2022-10-05T00:40:46.173Z,10.75
2022-10-05T00:43:23.549Z,12.00
2022-10-05T00:46:25.982Z,11.90
2022-10-05T00:49:03.665Z,12.90
2022-10-05T00:51:33.655Z,15.80
2022-10-05T00:54:06.055Z,11.57
2022-10-05T00:57:01.345Z,13.93
2022-10-05T00:59:46.366Z,12.13
2022-10-05T01:02:19.915Z,10.48
2022-10-05T01:04:55.966Z,11.63
2022-10-05T01:10:19.090Z,9.77
2022-10-05T01:13:10.467Z,11.88
2022-10-05T01:15:43.009Z,12.45
2022-10-05T01:18:22.431Z,12.43
2022-10-05T01:20:54.642Z,12.82
2022-10-05T01:23:39.851Z,12.75
2022-10-05T01:26:21.091Z,12.70
2022-10-05T01:28:56.738Z,11.65
2022-10-05T01:31:28.531Z,10.80
2022-10-05T01:34:26.104Z,14.20
2022-10-05T01:37:00.262Z,12.30
2022-10-05T01:39:48.752Z,12.63
2022-10-05T01:42:27.163Z,13.20
2022-10-05T01:45:19.853Z,14.82
2022-10-05T01:47:50.134Z,12.70
2022-10-05T01:50:37.368Z,11.52
2022-10-05T01:53:37.739Z,9.82
2022-10-05T01:56:32.675Z,11.13
2022-10-05T01:59:16.107Z,10.52
2022-10-05T02:02:14.064Z,9.45
2022-10-05T02:05:04.418Z,8.93
2022-10-05T02:07:37.184Z,12.57
2022-10-05T02:10:35.672Z,9.48
2022-10-05T02:13:10.699Z,10.10
2022-10-05T02:16:01.686Z,9.27
2022-10-05T02:18:39.245Z,9.98
2022-10-05T02:21:06.174Z,11.38
2022-10-05T02:23:37.778Z,8.98
2022-10-05T02:26:05.289Z,12.75
2022-10-05T02:29:09.806Z,11.07
2022-10-05T02:31:51.874Z,10.05
2022-10-05T02:34:28.732Z,13.00
2022-10-05T02:37:25.241Z,11.45
2022-10-05T02:40:09.739Z,10.75
2022-10-05T02:43:02.554Z,9.27
2022-10-05T02:45:43.715Z,10.50
2022-10-05T02:48:45.438Z,9.13
2022-10-05T02:51:36.189Z,8.75
2022-10-05T02:54:20.514Z,9.55
2022-10-05T02:56:54.220Z,9.00
2022-10-05T02:59:27.894Z,9.15
2022-10-05T03:02:18.657Z,9.20
2022-10-05T03:05:20.051Z,7.95
2022-10-05T03:08:04.901Z,9.38
2022-10-05T03:10:43.242Z,12.20
2022-10-05T03:13:26.071Z,7.22
2022-10-05T03:16:01.670Z,11.45
2022-10-05T03:18:52.319Z,10.70
2022-10-05T03:21:39.581Z,10.00
2022-10-05T03:24:32.489Z,8.82
2022-10-05T03:27:28.055Z,9.15
2022-10-05T03:30:25.670Z,9.65
2022-10-05T03:33:13.842Z,12.13
2022-10-05T03:35:56.730Z,9.50
2022-10-05T03:38:31.137Z,8.27
2022-10-05T03:41:10.761Z,12.73
2022-10-05T03:44:15.851Z,8.57
2022-10-05T03:46:53.944Z,9.80
2022-10-05T03:49:32.475Z,10.60
2022-10-05T03:52:05.723Z,10.80
2022-10-05T03:54:41.036Z,9.43
2022-10-05T03:57:13.759Z,11.43
2022-10-05T04:00:09.943Z,8.57
2022-10-05T04:02:45.405Z,9.95
2022-10-05T04:05:35.518Z,10.63
2022-10-05T04:08:07.795Z,8.93
2022-10-05T04:10:52.736Z,9.18
2022-10-05T04:13:40.671Z,10.30
2022-10-05T04:16:15.875Z,9.55
2022-10-05T04:18:48.079Z,10.52
2022-10-05T04:21:25.011Z,11.40
2022-10-05T04:23:59.307Z,9.98
2022-10-05T04:26:37.388Z,10.48
2022-10-05T04:29:34.948Z,10.57
2022-10-05T04:32:07.763Z,10.77
2022-10-05T04:34:54.341Z,10.25
2022-10-05T04:37:46.273Z,15.77
2022-10-05T04:40:31.294Z,10.75
2022-10-05T04:43:03.575Z,9.98
2022-10-05T04:45:54.169Z,9.85
2022-10-05T04:48:44.469Z,11.65
2022-10-05T04:51:50.973Z,11.65
2022-10-05T04:54:50.746Z,9.63
2022-10-05T04:57:24.635Z,11.48
2022-10-05T05:00:21.295Z,12.05
2022-10-05T05:03:07.491Z,12.20
2022-10-05T05:06:12.161Z,10.82
2022-10-05T05:08:50.477Z,10.82
2022-10-05T05:11:37.955Z,11.90
2022-10-05T05:14:33.147Z,11.52
2022-10-05T05:17:31.948Z,11.20
2022-10-05T05:20:21.545Z,12.50
2022-10-05T05:22:57.223Z,11.10
2022-10-05T05:26:07.707Z,10.43
2022-10-05T05:28:54.461Z,10.90
2022-10-05T05:31:39.722Z,11.50
2022-10-05T05:34:26.704Z,10.73
2022-10-05T05:37:04.477Z,10.07
2022-10-05T05:39:46.110Z,12.65
2022-10-05T05:42:34.179Z,12.75
2022-10-05T05:45:10.591Z,12.13
2022-10-05T05:47:43.529Z,11.40
2022-10-05T05:50:19.020Z,11.48
2022-10-05T05:52:49.393Z,9.65
2022-10-05T05:55:29.052Z,10.35
2022-10-05T05:58:03.950Z,13.48
2022-10-05T06:00:37.889Z,10.27
2022-10-05T06:03:10.925Z,12.00
2022-10-05T06:05:44.581Z,10.77
2022-10-05T06:08:36.646Z,10.35
2022-10-05T06:11:16.295Z,10.73
2022-10-05T06:13:43.596Z,9.10
2022-10-05T06:16:25.434Z,17.88
2022-10-05T06:18:56.533Z,15.43
2022-10-05T06:21:35.985Z,10.48
2022-10-05T06:24:23.609Z,13.75
2022-10-05T06:27:14.802Z,9.60
2022-10-05T06:29:55.602Z,9.73
2022-10-05T06:32:31.911Z,10.45
2022-10-05T06:35:38.792Z,9.93
2022-10-05T06:38:43.003Z,9.82
2022-10-05T06:41:23.403Z,9.48
2022-10-05T06:44:00.523Z,10.90
2022-10-05T06:46:34.047Z,8.50
2022-10-05T06:49:03.270Z,9.48
2022-10-05T06:51:44.150Z,11.10
2022-10-05T06:54:29.687Z,9.77
2022-10-05T06:57:04.613Z,11.80
2022-10-05T06:59:49.551Z,11.40
2022-10-05T07:02:41.486Z,7.78
2022-10-05T07:05:26.578Z,8.50
2022-10-05T07:08:10.307Z,10.15
2022-10-05T07:10:45.270Z,9.82
2022-10-05T07:13:29.753Z,8.65
2022-10-05T07:16:10.530Z,10.23
2022-10-05T07:18:50.293Z,9.63
2022-10-05T07:21:43.323Z,8.73
2022-10-05T07:24:16.335Z,7.45
2022-10-05T07:26:46.461Z,10.48
2022-10-05T07:29:23.293Z,8.45
2022-10-05T07:32:00.542Z,9.20
2022-10-05T07:34:47.457Z,8.25
2022-10-05T07:37:48.698Z,8.43
2022-10-05T07:40:18.882Z,9.02
2022-10-05T07:43:11.280Z,8.25
2022-10-05T07:46:02.318Z,8.35
2022-10-05T07:48:56.335Z,11.85
2022-10-05T07:51:28.813Z,9.75
2022-10-05T07:54:13.695Z,9.05
2022-10-05T07:56:45.999Z,7.95
2022-10-05T07:59:22.236Z,9.82
2022-10-05T08:04:30.653Z,6.25
2022-10-05T08:07:02.254Z,7.72
2022-10-05T08:09:40.851Z,7.05
2022-10-05T08:12:27.645Z,8.10
2022-10-05T08:15:03.200Z,8.40
2022-10-05T08:17:45.493Z,9.38
2022-10-05T08:20:36.273Z,8.02
2022-10-05T08:23:25.896Z,7.57
2022-10-05T08:26:18.639Z,8.35
2022-10-05T08:29:13.894Z,7.20
2022-10-05T08:31:45.433Z,7.22
2022-10-05T08:34:24.190Z,7.47
2022-10-05T08:37:09.285Z,7.13
2022-10-05T08:39:40.852Z,6.68
2022-10-05T08:42:31.586Z,6.45
2022-10-05T08:45:13.019Z,6.78
2022-10-05T08:48:09.608Z,6.60
2022-10-05T08:51:07.050Z,5.95
2022-10-05T08:53:45.506Z,8.00
2022-10-05T08:56:33.118Z,10.13
2022-10-05T08:59:22.918Z,5.18
2022-10-05T09:02:17.276Z,5.95
2022-10-05T09:05:10.368Z,6.75
2022-10-05T09:07:51.992Z,7.30
2022-10-05T09:10:49.345Z,5.32
2022-10-05T09:13:42.117Z,4.95
2022-10-05T09:16:31.474Z,6.85
2022-10-05T09:19:34.550Z,6.05
2022-10-05T09:22:38.295Z,5.43
2022-10-05T09:25:10.615Z,4.75
2022-10-05T09:27:38.692Z,6.95
2022-10-05T09:30:18.365Z,5.20
2022-10-05T09:33:02.859Z,4.68
2022-10-05T09:35:58.087Z,6.43
2022-10-05T09:38:52.119Z,4.70
2022-10-05T09:41:37.212Z,5.10
2022-10-05T09:44:14.297Z,6.25
2022-10-05T09:46:55.695Z,3.88
2022-10-05T09:49:52.596Z,4.47
2022-10-05T09:55:40.231Z,4.45
2022-10-05T09:58:28.242Z,5.40
2022-10-05T10:01:29.137Z,6.47
2022-10-05T10:04:12.163Z,4.95
2022-10-05T10:07:21.042Z,4.00
2022-10-05T10:10:06.259Z,3.95
2022-10-05T10:13:01.210Z,3.95
2022-10-05T10:15:48.489Z,3.05
2022-10-05T10:18:49.000Z,4.50
2022-10-05T10:21:46.595Z,3.25
2022-10-05T10:24:22.373Z,2.47
2022-10-05T10:26:59.831Z,4.65
2022-10-05T10:29:33.954Z,7.75
2022-10-05T10:32:23.975Z,2.72
2022-10-05T10:35:15.466Z,5.32
2022-10-05T10:38:00.698Z,5.30
2022-10-05T10:40:36.889Z,7.40
2022-10-05T10:43:06.034Z,5.13
2022-10-05T10:45:59.800Z,3.72
2022-10-05T10:48:29.148Z,5.00
2022-10-05T10:51:21.935Z,3.63
2022-10-05T10:54:07.191Z,3.25
2022-10-05T10:57:11.332Z,4.80
2022-10-05T10:59:43.722Z,3.22
2022-10-05T11:02:47.040Z,4.10
2022-10-05T11:05:32.438Z,3.72
2022-10-05T11:08:12.631Z,4.03
2022-10-05T11:11:03.171Z,4.32
2022-10-05T11:13:50.111Z,2.97
2022-10-05T11:16:25.319Z,5.70
2022-10-05T11:18:58.823Z,3.88
2022-10-05T11:22:03.972Z,2.97
2022-10-05T11:24:38.660Z,5.80
2022-10-05T11:27:25.255Z,5.40
2022-10-05T11:30:01.931Z,4.53
2022-10-05T11:33:02.494Z,3.28
2022-10-05T11:35:38.723Z,3.25
2022-10-05T11:38:46.217Z,7.55
2022-10-05T11:41:34.481Z,3.55
2022-10-05T11:44:38.718Z,4.85
2022-10-05T11:47:30.160Z,7.05
2022-10-05T11:50:18.974Z,4.97
2022-10-05T11:52:56.926Z,3.65
2022-10-05T11:55:49.706Z,2.78
2022-10-05T11:58:28.499Z,2.58
2022-10-05T12:04:14.273Z,3.22
2022-10-05T12:07:14.894Z,3.83
2022-10-05T12:10:09.995Z,3.05
2022-10-05T12:12:51.035Z,2.75
2022-10-05T12:15:23.886Z,3.33
2022-10-05T12:18:19.179Z,4.95
2022-10-05T12:21:04.758Z,5.57
2022-10-05T12:23:46.911Z,3.73
2022-10-05T12:26:41.054Z,4.10
2022-10-05T12:29:37.509Z,4.13
2022-10-05T12:32:13.404Z,3.53
2022-10-05T12:37:36.478Z,3.90
2022-10-05T12:40:12.146Z,3.20
2022-10-05T12:42:53.154Z,6.18
2022-10-05T12:45:47.684Z,7.50
2022-10-05T12:48:36.391Z,3.55
2022-10-05T12:51:27.703Z,3.25
2022-10-05T12:54:02.487Z,4.75
2022-10-05T12:56:47.546Z,3.00
2022-10-05T12:59:41.172Z,4.35
2022-10-05T13:02:13.750Z,2.92
2022-10-05T13:04:57.652Z,2.38
2022-10-05T13:07:33.409Z,1.75
2022-10-05T13:10:12.948Z,4.13
2022-10-05T13:12:51.454Z,3.65
2022-10-05T13:15:23.870Z,2.60
2022-10-05T13:18:06.550Z,3.35
2022-10-05T13:20:41.965Z,5.68
2022-10-05T13:23:27.296Z,3.72
2022-10-05T13:26:00.726Z,2.40
2022-10-05T13:28:37.426Z,4.78
2022-10-05T13:31:14.901Z,4.45
2022-10-05T13:34:02.487Z,2.17
2022-10-05T13:36:42.174Z,3.75
2022-10-05T13:39:26.261Z,1.85
2022-10-05T13:42:15.521Z,2.58
2022-10-05T13:44:56.463Z,3.35
2022-10-05T13:47:28.674Z,2.20
2022-10-05T13:50:02.201Z,2.72
2022-10-05T13:52:50.471Z,2.47
2022-10-05T13:55:45.920Z,2.88
2022-10-05T13:58:21.167Z,2.42
2022-10-05T14:00:54.644Z,2.53
2022-10-05T14:03:27.591Z,6.15
2022-10-05T14:05:59.917Z,1.88
2022-10-05T14:08:33.413Z,3.38
2022-10-05T14:11:19.443Z,2.53
2022-10-05T14:13:47.472Z,2.03
2022-10-05T14:16:13.781Z,1.80
2022-10-05T14:19:03.757Z,1.83
2022-10-05T14:21:32.611Z,3.05
2022-10-05T14:24:32.112Z,1.70
2022-10-05T14:27:23.298Z,1.83
2022-10-05T14:30:02.126Z,3.92
2022-10-05T14:32:44.408Z,1.80
2022-10-05T14:35:12.775Z,2.47
2022-10-05T14:37:44.266Z,3.17
2022-10-05T14:40:29.870Z,3.42
2022-10-05T14:42:58.361Z,1.77
2022-10-05T14:45:29.687Z,1.95
2022-10-05T14:48:02.050Z,2.05
2022-10-05T14:50:31.221Z,3.50
2022-10-05T14:53:21.756Z,3.05
2022-10-05T14:56:04.009Z,2.15
2022-10-05T14:58:39.531Z,2.30
2022-10-05T15:01:32.097Z,2.85
2022-10-05T15:04:07.872Z,6.07
2022-10-05T15:06:41.390Z,2.63
2022-10-05T15:09:26.683Z,2.05
2022-10-05T15:11:56.394Z,1.95
2022-10-05T15:14:29.318Z,1.80
2022-10-05T15:17:03.158Z,2.90
2022-10-05T15:20:05.078Z,2.35
2022-10-05T15:22:41.323Z,3.35
2022-10-05T15:25:22.306Z,1.30
2022-10-05T15:28:13.853Z,2.05
2022-10-05T15:30:49.800Z,2.05
2022-10-05T15:38:42.706Z,1.52
2022-10-05T15:41:39.004Z,2.33
2022-10-05T15:44:39.644Z,1.45
2022-10-05T15:47:09.116Z,2.30
2022-10-05T15:49:41.271Z,1.65
2022-10-05T15:52:17.632Z,2.38
2022-10-05T15:55:06.172Z,2.90
2022-10-05T15:57:56.870Z,3.20
2022-10-05T16:00:26.393Z,2.00
2022-10-05T16:03:05.207Z,3.42
2022-10-05T16:06:05.318Z,3.28
2022-10-05T16:08:53.257Z,1.83
2022-10-05T16:11:31.593Z,5.03
2022-10-05T16:14:10.375Z,2.67
2022-10-05T16:16:57.415Z,2.65
2022-10-05T16:19:35.568Z,2.28
2022-10-05T16:22:31.110Z,2.08
2022-10-05T16:25:06.427Z,2.08
2022-10-05T16:28:05.252Z,2.75
2022-10-05T16:30:48.418Z,1.63
2022-10-05T16:33:37.016Z,2.53
2022-10-05T16:36:35.811Z,1.52
2022-10-05T16:39:21.563Z,3.40
2022-10-05T16:41:59.874Z,2.42
2022-10-05T16:44:45.049Z,2.95
2022-10-05T16:47:31.213Z,3.03
2022-10-05T16:50:28.587Z,3.28
2022-10-05T16:53:04.873Z,2.33
2022-10-05T16:56:01.813Z,3.38
2022-10-05T17:01:28.229Z,2.00
2022-10-05T17:04:14.338Z,2.95
2022-10-05T17:06:56.563Z,2.78
2022-10-05T17:09:42.637Z,1.95
2022-10-05T17:12:27.044Z,1.70
2022-10-05T17:15:11.377Z,2.13
2022-10-05T17:18:03.101Z,1.88
2022-10-05T17:20:39.074Z,4.40
2022-10-05T17:23:37.550Z,3.58
2022-10-05T17:26:22.655Z,2.55
2022-10-05T17:28:52.062Z,10.55
2022-10-05T17:31:21.656Z,2.88
2022-10-05T17:34:00.179Z,3.45
2022-10-05T17:36:57.861Z,1.50
2022-10-05T17:39:48.989Z,2.95
2022-10-05T17:42:34.308Z,1.73
2022-10-05T17:45:23.157Z,2.28
2022-10-05T17:48:09.301Z,1.75
2022-10-05T17:51:02.198Z,3.40
2022-10-05T17:54:06.694Z,2.38
2022-10-05T17:56:58.649Z,3.95
2022-10-05T17:59:38.869Z,3.53
2022-10-05T18:02:37.434Z,1.42
2022-10-05T18:05:06.714Z,2.75
2022-10-05T18:07:34.475Z,2.17
2022-10-05T18:10:04.155Z,3.20
2022-10-05T18:12:36.639Z,2.25
2022-10-05T18:15:08.892Z,4.47
2022-10-05T18:17:46.401Z,3.08
2022-10-05T18:20:31.357Z,3.90
2022-10-05T18:23:05.996Z,3.45
2022-10-05T18:25:32.312Z,4.63
2022-10-05T18:28:06.184Z,3.40
2022-10-05T18:30:46.021Z,2.10
2022-10-05T18:33:29.786Z,7.53
2022-10-05T18:36:16.173Z,3.83
2022-10-05T18:41:22.636Z,2.63
2022-10-05T18:44:21.086Z,4.38
2022-10-05T18:47:00.693Z,4.78
2022-10-05T18:49:33.937Z,3.35
2022-10-05T18:52:36.233Z,5.07
2022-10-05T18:55:18.386Z,3.40
2022-10-05T18:57:53.126Z,2.40
2022-10-05T19:00:24.989Z,2.00
2022-10-05T19:03:13.178Z,2.25
2022-10-05T19:05:55.907Z,2.08
2022-10-05T19:08:50.013Z,1.85
2022-10-05T19:11:25.936Z,4.60
2022-10-05T19:16:57.510Z,2.80
2022-10-05T19:19:45.950Z,3.50
2022-10-05T19:22:15.236Z,1.30
2022-10-05T19:24:49.444Z,2.28
2022-10-05T19:27:34.345Z,2.78
2022-10-05T19:30:17.930Z,2.20
2022-10-05T19:33:05.002Z,2.05
2022-10-05T19:36:00.842Z,3.95
2022-10-05T19:38:39.192Z,1.50
2022-10-05T19:41:18.579Z,3.03
2022-10-05T19:44:21.908Z,2.80
2022-10-05T19:47:09.512Z,3.80
2022-10-05T19:49:43.051Z,2.10
2022-10-05T19:52:31.134Z,2.78
2022-10-05T19:55:22.332Z,2.65
2022-10-05T19:57:51.692Z,3.40
2022-10-05T20:00:31.935Z,3.63
2022-10-05T20:03:14.230Z,3.22
2022-10-05T20:05:40.870Z,2.30
2022-10-05T20:08:07.940Z,6.05
2022-10-05T20:10:34.466Z,1.50
2022-10-05T20:13:03.734Z,2.53
2022-10-05T20:15:51.487Z,3.03
2022-10-05T20:18:56.125Z,2.63
2022-10-05T20:21:51.497Z,10.02
2022-10-05T20:24:21.088Z,4.45
2022-10-05T20:27:12.575Z,3.95
2022-10-05T20:29:43.424Z,3.05
2022-10-05T20:32:15.148Z,1.95
2022-10-05T20:34:43.580Z,4.22
2022-10-05T20:37:15.802Z,9.93
2022-10-05T20:39:42.983Z,3.05
2022-10-05T20:42:10.600Z,4.05
2022-10-05T20:44:38.102Z,3.63
2022-10-05T20:47:05.487Z,2.63
2022-10-05T20:49:32.489Z,1.92
2022-10-05T20:51:59.379Z,3.72
2022-10-05T20:54:27.102Z,5.20
2022-10-05T20:56:55.566Z,3.30
2022-10-05T20:59:23.422Z,2.38
2022-10-05T21:01:49.954Z,6.68
2022-10-05T21:04:22.905Z,5.07
2022-10-05T21:06:49.787Z,2.33
2022-10-05T21:09:21.253Z,2.97
2022-10-05T21:11:50.027Z,2.60
2022-10-05T21:14:16.987Z,3.67
2022-10-05T21:16:46.003Z,5.25
2022-10-05T21:19:14.293Z,3.92
2022-10-05T21:21:45.696Z,3.08
2022-10-05T21:24:14.128Z,5.57
2022-10-05T21:26:41.789Z,4.40
2022-10-05T21:29:12.593Z,7.68
2022-10-05T21:31:40.249Z,2.65
2022-10-05T21:34:07.223Z,4.88
2022-10-05T21:36:33.983Z,4.90
2022-10-05T21:39:00.958Z,4.15
2022-10-05T21:41:27.463Z,4.82
2022-10-05T21:43:53.804Z,2.55
2022-10-05T21:46:22.829Z,3.50
2022-10-05T21:48:49.876Z,2.33
2022-10-05T21:51:18.769Z,5.20
2022-10-05T21:53:53.742Z,3.83
2022-10-05T21:56:22.947Z,4.80
2022-10-05T21:58:50.385Z,6.80
2022-10-05T22:01:22.359Z,4.32
2022-10-05T22:03:49.090Z,2.33
2022-10-05T22:06:15.462Z,3.85
2022-10-05T22:08:41.807Z,5.32
2022-10-05T22:11:13.466Z,5.07
2022-10-05T22:13:43.102Z,4.43
2022-10-05T22:16:10.055Z,3.50
2022-10-05T22:18:36.610Z,3.03
2022-10-05T22:21:04.985Z,2.45
2022-10-05T22:23:31.857Z,3.38
2022-10-05T22:25:58.326Z,2.22
2022-10-05T22:28:24.884Z,1.60
2022-10-05T22:30:51.544Z,2.13
2022-10-05T22:33:18.086Z,0.60
2022-10-05T22:35:44.553Z,0.47
2022-10-05T22:38:10.939Z,2.65
2022-10-05T22:40:37.365Z,1.00
2022-10-05T22:43:04.597Z,2.70
2022-10-05T22:45:32.784Z,0.93
2022-10-05T22:47:59.274Z,1.88
2022-10-05T22:50:25.623Z,3.10
2022-10-05T22:52:54.544Z,2.10
2022-10-05T22:55:21.279Z,1.08
2022-10-05T22:57:49.153Z,1.13
2022-10-05T23:00:18.738Z,1.38
2022-10-05T23:02:45.416Z,2.13
2022-10-05T23:05:17.074Z,1.67
2022-10-05T23:07:46.603Z,1.77
2022-10-05T23:10:15.904Z,1.48
2022-10-05T23:12:43.042Z,1.75
2022-10-05T23:15:09.967Z,1.17
2022-10-05T23:17:38.846Z,1.85
2022-10-05T23:20:07.253Z,2.10
2022-10-05T23:22:38.310Z,1.17
2022-10-05T23:25:07.644Z,0.75
2022-10-05T23:27:41.766Z,1.23
2022-10-05T23:30:10.296Z,1.90
2022-10-05T23:32:43.723Z,3.13
2022-10-05T23:35:12.041Z,0.55
2022-10-05T23:37:43.397Z,1.25
2022-10-05T23:40:12.216Z,1.65
2022-10-05T23:42:41.976Z,0.80
2022-10-05T23:45:10.240Z,2.95
2022-10-05T23:47:36.735Z,1.25
2022-10-05T23:50:05.309Z,1.23
2022-10-05T23:52:31.649Z,2.60
2022-10-05T23:54:57.979Z,2.90
2022-10-05T23:57:24.494Z,1.02
2022-10-05T23:59:50.938Z,2.85
